• Join FlightAware (Why Join?)
  • Login
  • US Flag 
02:51PM EST


 

Airport Tracker/Info


-or-


 

Live Flight TrackerFlight Track Log ✈ N415JA ✈ 19-Feb-2014 ✈ KTMB - KGNV

Flight Track Log - Related Links

Times and Time Zones

All times are in EST time to prevent confusion due to time zone crossing. See the N415JA flight status page for this flight to view local times or setup timezone preferences in your user account.

Time Position Orientation Groundspeed Altitude Reporting Facility
EST Latitude Longitude Course Direction KTS MPH feet Rate Location/Type
08:09PM 25.6425 -80.4083 88° East 156 180 1,200  Level Miami Center
08:09PM 25.6431 -80.3900 88° East 181 208 1,900 2,460 Climbing Miami Center
08:11PM 25.6592 -80.3167 76° East 225 259 5,000 2,940 Climbing Miami Center
08:12PM 25.7431 -80.3075 North 284 327 9,600 2,940 Climbing Miami Center
08:13PM 25.8133 -80.3442 335° Northwest 289 333 12,400 2,520 Climbing Miami Center
08:14PM 25.8961 -80.3719 343° North 295 339 14,700 2,280 Climbing Miami Center
08:15PM 25.9853 -80.4000 344° North 309 356 17,000 2,160 Climbing Miami Center
08:16PM 26.0806 -80.4306 344° North 332 382 19,100 1,500 Climbing Miami Center
08:17PM 26.1692 -80.4864 331° Northwest 347 399 20,000 360 Climbing Miami Center
08:18PM 26.2442 -80.5767 313° West 378 435 19,900  Descending Miami Center
08:19PM 26.3186 -80.6786 309° West 385 443 20,000  Climbing Miami Center
08:20PM 26.3814 -80.7572 312° West 382 440 20,000  Level Miami Center
08:21PM 26.4581 -80.8594 310° West 382 440 20,000  Level Miami Center
08:22PM 26.5286 -80.9456 312° West 382 440 20,000 240 Level Miami Center
08:23PM 26.5972 -81.0339 311° West 382 440 20,500 1,020 Climbing Miami Center
08:24PM 26.6575 -81.1125 311° West 377 434 22,100 1,740 Climbing Miami Center
08:25PM 26.7239 -81.2011 310° West 377 434 24,000 1,920 Climbing Miami Center
08:26PM 26.8025 -81.2925 314° West 377 434 26,000 960 Climbing Miami Center
08:27PM 26.9008 -81.3497 333° Northwest 387 445 26,000  Level Miami Center
08:28PM 27.0125 -81.3867 344° North 404 465 26,000  Level Miami Center
08:29PM 27.1139 -81.4186 344° North 410 472 26,000  Level Miami Center
08:30PM 27.2233 -81.4531 344° North 416 479 26,000  Level Miami Center
08:31PM 27.3450 -81.4953 343° North 411 473 26,000  Level Miami Center
08:32PM 27.4567 -81.5303 344° North 411 473 26,000  Level Miami Center
08:33PM 27.5661 -81.5675 343° North 411 473 26,000  Level Miami Center
08:34PM 27.6675 -81.5975 345° North 416 479 26,000  Level Miami Center
08:35PM 27.7789 -81.6372 342° North 416 479 26,000 -420 Level Miami Center
08:36PM 27.8986 -81.6753 344° North 416 479 25,200 -900 Descending Miami Center
08:37PM 28.0100 -81.7128 343° North 411 473 24,300 -480 Descending Miami Center
08:39PM 28.1825 -81.7669 345° North 411 473 24,000 -120 Descending Jacksonville Center
08:40PM 28.2933 -81.8036 344° North 405 466 24,000 -720 Level Jacksonville Center
08:41PM 28.4003 -81.8400 343° North 405 466 22,600 -1,500 Descending Jacksonville Center
08:42PM 28.5175 -81.8861 341° North 405 466 21,000 -1,620 Descending Jacksonville Center
08:43PM 28.6119 -81.9583 326° Northwest 400 460 19,400 -1,620 Descending Jacksonville Center
08:44PM 28.6936 -82.0144 329° Northwest 400 460 17,800 -1,680 Descending Jacksonville Center
08:45PM 28.7839 -82.0731 330° Northwest 385 443 16,100 -2,040 Descending Jacksonville Center
08:45PM 28.8425 -82.1103 331° Northwest 368 423 14,600 -2,220 Descending Jacksonville Center
08:46PM 28.8781 -82.1197 347° North 377 434 13,900 -1,800 Descending Jacksonville Center
08:46PM 28.9575 -82.1450 344° North 364 419 12,600 -1,740 Descending Jacksonville Center
08:47PM 28.9764 -82.1450 360° North 359 413 12,200 -1,560 Descending Jacksonville Center
08:47PM 29.0453 -82.1586 350° North 346 398 11,200 -1,440 Descending Jacksonville Center
08:48PM 29.0703 -82.1608 356° North 354 407 10,800 -1,140 Descending Jacksonville Center
08:48PM 29.1350 -82.1769 348° North 309 356 10,100 -900 Descending Jacksonville Center
08:49PM 29.1561 -82.1792 355° North 330 380 9,900 -1,020 Descending Jacksonville Center
08:49PM 29.2144 -82.1908 350° North 287 330 9,100 -1,200 Descending Jacksonville Center
08:50PM 29.2353 -82.1906 North 305 351 8,700 -1,380 Descending Jacksonville Center
08:50PM 29.2958 -82.2044 349° North 298 343 7,700 -1,440 Descending Jacksonville Center
08:51PM 29.3169 -82.2067 355° North 298 343 7,300 -1,620 Descending Jacksonville Center
08:51PM 29.3836 -82.2206 350° North 291 335 6,100 -1,500 Descending Jacksonville Center
08:52PM 29.3942 -82.2203 North 293 337 5,800 -1,500 Descending Jacksonville Center
08:52PM 29.4547 -82.2247 356° North 248 285 4,600 -1,500 Descending Jacksonville Center
08:53PM 29.4631 -82.2222 15° North 269 310 4,300 -1,920 Descending Jacksonville Center
08:53PM 29.5153 -82.2125 North 229 264 2,700 -2,040 Descending Jacksonville Center
08:54PM 29.5278 -82.2075 19° North 239 275 2,300 -720 Descending Jacksonville Center
08:54PM 29.5736 -82.2025 North 191 220 2,000 -300 Descending Jacksonville Center
08:55PM 29.5819 -82.1975 28° Northeast 218 251 2,000 -120 Level Jacksonville Center
08:55PM 29.6217 -82.1903 North 170 196 1,900 -480 Descending Jacksonville Center
08:56PM 29.6633 -82.1947 355° North 149 171 1,200 -660 Descending Jacksonville Center
08:57PM 29.6803 -82.2328 297° West 127 146 600 -600 Descending Jacksonville Center